Latest Coastal Weather Observations for Cape Grim

IDT60701

Issued at 2:03 pm EDT Tuesday 24 January 2017 (issued every 10 minutes, with the page automatically refreshed every 10 minutes)

About coastal observations | Map of coastal stations | Coastal observations for TAS | Marine services | Other Formats
Station Details ID: 091331 Name: CAPE GRIM Lat: -40.68 Lon: 144.69 Height: 86.0 m
Data from the previous 72 hours. | See also: Recent months at Cape Grim
Date/Time
EDT
Temp
°C
Wind Pressure Rain since
9am
mm
Weather Cloud Vis
km
Sea
Height
m
Swell
Dir  Spd
kts
Gust
kts
hPa Trend Height
m
Period
s
Dir
24/02:00pm 15.5 SW 22 35 1013.1 - 0.0 - Partly cloudy - - - - -
24/01:31pm 15.9 SW 25 35 1012.8 - 0.0 - Partly cloudy - - - - -
24/01:30pm 16.0 SW 26 35 1012.8 - 0.0 - Partly cloudy - - - - -
24/01:21pm 15.9 SW 25 35 1012.6 - 0.0 - Partly cloudy - - - - -
24/01:00pm 15.8 SW 28 36 1012.3 - 0.0 - Partly cloudy - - - - -
24/12:30pm 15.7 SW 23 34 1011.8 - 0.0 - Partly cloudy - - - - -
24/12:13pm 15.4 SW 24 35 1011.6 - 0.0 - Partly cloudy - - - - -
24/12:00pm 15.6 SW 26 34 1011.4 - 0.0 - Partly cloudy - - - - -
24/11:30am 15.4 SW 25 35 1010.8 - 0.0 - Partly cloudy - - - - -
24/11:02am 15.3 SW 30 40 1010.4 - 0.0 - Partly cloudy - - - - -
24/11:00am 15.2 SW 31 40 1010.3 - 0.0 - Partly cloudy - - - - -
24/10:33am 15.0 SW 31 41 1009.5 - 0.0 - Partly cloudy - - - - -
24/10:30am 15.0 SW 32 41 1009.3 - 0.0 - Partly cloudy - - - - -
24/10:00am 15.1 SW 30 40 1008.5 - 0.0 - Partly cloudy - - - - -
24/09:30am 14.6 SW 30 40 1007.8 - 0.0 - - - - - - -
24/09:00am 15.2 WSW 25 40 1007.1 - 3.6 - Mostly clear - - - - -
24/08:30am 15.1 WSW 26 45 1006.5 - 3.6 - Partly cloudy - - - - -
24/08:00am 14.9 SW 27 45 1005.9 - 3.6 - Partly cloudy - - - - -
24/07:30am 14.6 WSW 26 43 1005.2 - 3.6 - Partly cloudy - - - - -
24/07:00am 14.8 SW 26 40 1004.4 - 3.6 - Partly cloudy - - - - -
24/06:30am 14.4 SW 27 42 1003.4 - 3.6 - Partly cloudy - - - - -
24/06:00am 14.8 SW 30 44 1002.5 - 3.6 - Cloudy - - - - -
24/05:30am 15.3 WSW 30 43 1001.6 - 3.6 - Partly cloudy - - - - -
24/05:00am 15.9 W 24 44 1001.1 - 3.6 - Partly cloudy - - - - -
24/04:30am 16.4 W 25 36 1000.5 - 3.6 - Partly cloudy - - - - -
24/04:00am 16.5 W 23 34 1000.4 - 3.6 - Partly cloudy - - - - -
24/03:36am 16.6 W 23 33 1000.3 - 3.6 - Partly cloudy - - - - -
24/03:30am 16.7 W 25 32 1000.2 - 3.6 - Partly cloudy - - - - -
24/03:00am 16.1 W 25 35 999.5 - 3.6 Rain Cloudy - - - - -
24/02:59am 16.2 W 25 35 999.5 - 3.6 - Partly cloudy - - - - -
24/02:45am 16.6 W 27 37 999.2 - 3.4 - Partly cloudy - - - - -
24/02:30am 16.9 W 28 36 999.2 - 3.4 - Partly cloudy - - - - -
24/02:04am 17.2 WNW 26 31 999.1 - 3.4 - Partly cloudy - - - - -
24/02:00am 17.3 WNW 25 30 999.0 - 3.4 - Partly cloudy - - - - -
24/01:46am 17.4 WNW 25 32 999.0 - 3.4 - Partly cloudy - - - - -
24/01:30am 17.6 WNW 25 37 998.9 - 3.4 - Partly cloudy - - - - -
24/01:27am 17.7 WNW 23 31 998.9 - 3.4 - Partly cloudy - - - - -
24/01:00am 17.6 NW 17 21 998.9 - 3.4 - Cloudy - - - - -
24/12:30am 17.4 NW 13 17 999.2 - 3.2 - Cloudy - - - - -
24/12:00am 17.4 N 12 16 999.4 - 3.0 - Cloudy - - - - -
 
Date/Time
EDT
Temp
°C
Wind Pressure Rain since
9am
mm
Weather Cloud Vis
km
Sea
Height
m
Swell
Dir  Spd
kts
Gust
kts
hPa Trend Height
m
Period
s
Dir
23/11:30pm 17.2 N 10 13 1000.0 - 3.0 - Partly cloudy - - - - -
23/11:00pm 17.0 N 9 10 1000.1 - 3.0 - Cloudy - - - - -
23/10:30pm 16.8 N 8 11 1000.8 - 3.0 - Partly cloudy - - - - -
23/10:18pm 16.8 N 8 9 1001.1 - 3.0 - Partly cloudy - - - - -
23/10:10pm 16.7 N 8 10 1001.3 - 3.0 - Partly cloudy - - - - -
23/10:00pm 16.8 N 8 10 1001.4 - 3.0 - Partly cloudy - - - - -
23/09:37pm 16.9 NNW 9 11 1001.8 - 2.8 - Partly cloudy - - - - -
23/09:30pm 16.9 NNW 9 11 1002.0 - 2.8 - Partly cloudy - - - - -
23/09:00pm 17.0 NNW 11 13 1002.2 - 2.6 Rain Mostly cloudy - - - - -
23/08:30pm 17.4 NNW 11 15 1002.6 - 1.6 - Partly cloudy - - - - -
23/08:00pm 17.6 N 13 18 1002.8 - 0.8 - Partly cloudy - - - - -
23/07:30pm 17.7 NNE 12 15 1002.5 - 0.0 - Partly cloudy - - - - -
23/07:00pm 17.9 NE 14 17 1001.9 - 0.0 - Cloudy - - - - -
23/06:30pm 18.2 ENE 16 20 1001.1 - 0.0 - Cloudy - - - - -
23/06:00pm 18.2 ENE 18 21 1001.0 - 0.0 - Cloudy - - - - -
23/05:30pm 18.5 ENE 20 24 1001.1 - 0.0 - Cloudy - - - - -
23/05:00pm 18.6 ENE 20 24 1001.5 - 0.0 - Cloudy - - - - -
23/04:30pm 19.0 ENE 22 25 1001.8 - 0.0 - Cloudy - - - - -
23/04:00pm 19.3 ENE 21 25 1002.0 - 0.0 - Partly cloudy - - - - -
23/03:30pm 19.3 ENE 23 27 1002.4 - 0.0 - Cloudy - - - - -
23/03:00pm 19.8 ENE 22 27 1002.8 - 0.0 - Mostly clear - - - - -
23/02:30pm 20.6 ENE 23 28 1003.2 - 0.0 - - - - - - -
23/02:00pm 19.8 ENE 23 29 1003.8 - 0.0 - Partly cloudy - - - - -
23/01:38pm 19.9 ENE 23 28 1004.1 - 0.0 - Partly cloudy - - - - -
23/01:30pm 19.9 ENE 23 28 1004.2 - 0.0 - Partly cloudy - - - - -
23/01:00pm 18.9 ENE 24 29 1004.2 - 0.0 - Cloudy - - - - -
23/12:30pm 19.1 ENE 25 30 1004.7 - 0.0 - Cloudy - - - - -
23/12:00pm 18.7 ENE 24 29 1005.0 - 0.0 - Mostly cloudy - - - - -
23/11:30am 19.0 ENE 26 31 1005.1 - 0.0 - Cloudy - - - - -
23/11:00am 18.5 E 26 31 1005.4 - 0.0 - Cloudy - - - - -
23/10:30am 18.3 E 24 29 1005.7 - 0.0 - Cloudy - - - - -
23/10:00am 17.3 ENE 25 30 1006.1 - 0.0 - Cloudy - - - - -
23/09:30am 17.5 E 24 30 1006.0 - 0.0 - Cloudy - - - - -
23/09:00am 16.8 E 25 30 1006.1 - 0.0 - Mostly cloudy - - - - -
23/08:30am 16.7 ENE 24 29 1006.2 - 0.0 - Cloudy - - - - -
23/08:00am 16.3 E 22 27 1006.3 - 0.0 - Partly cloudy - - - - -
23/07:33am 16.0 E 22 26 1006.3 - 0.0 - Partly cloudy - - - - -
23/07:30am 16.0 E 21 26 1006.3 - 0.0 - Partly cloudy - - - - -
23/07:00am 15.9 E 19 25 1006.5 - 0.0 - - - - - - -
23/06:30am 15.8 E 19 22 1006.9 - 0.0 - - - - - - -
23/06:23am 15.8 E 20 23 1007.0 - 0.0 - Partly cloudy - - - - -
23/06:00am 15.8 E 20 23 1007.2 - 0.0 - Cloudy - - - - -
23/05:30am 15.9 E 19 23 1007.5 - 0.0 - Cloudy - - - - -
23/05:00am 15.8 E 18 22 1007.4 - 0.0 - Cloudy - - - - -
23/04:30am 16.0 E 17 20 1007.5 - 0.0 - Partly cloudy - - - - -
23/04:24am 16.0 E 17 19 1007.4 - 0.0 - Partly cloudy - - - - -
23/04:00am 15.9 E 16 19 1007.8 - 0.0 - - - - - - -
23/03:30am 15.9 ENE 15 18 1008.2 - 0.0 - - - - - - -
23/03:00am 15.7 ENE 13 15 1008.7 - 0.0 - - - - - - -
23/02:30am 15.6 ENE 12 14 1009.4 - 0.0 - - - - - - -
23/02:00am 15.1 ENE 10 12 1010.0 - 0.0 - - - - - - -
23/01:30am 14.6 NE 9 10 1010.4 - 0.0 - - - - - - -
23/01:00am 14.6 NE 9 11 1010.6 - 0.0 - - - - - - -
23/12:30am 14.2 NE 7 8 1011.0 - 0.0 - - - - - - -
23/12:00am 14.2 NE 9 11 1010.9 - 0.0 - - - - - - -
 
Date/Time
EDT
Temp
°C
Wind Pressure Rain since
9am
mm
Weather Cloud Vis
km
Sea
Height
m
Swell
Dir  Spd
kts
Gust
kts
hPa Trend Height
m
Period
s
Dir
22/11:30pm 14.3 NE 9 10 1011.1 - 0.0 - - - - - - -
22/11:00pm 14.4 NE 9 9 1011.5 - 0.0 - - - - - - -
22/10:30pm 15.0 NNE 7 8 1011.9 - 0.0 - - - - - - -
22/10:00pm 15.9 SW 6 7 1012.2 - 0.0 - - - - - - -
22/09:30pm 16.5 CALM 0 0 1012.3 - 0.0 - - - - - - -
22/09:00pm 16.4 CALM 0 0 1012.3 - 0.0 - - - - - - -
22/08:30pm 16.9 SW 3 4 1012.5 - 0.0 - - - - - - -
22/08:00pm 17.0 SW 6 7 1012.6 - 0.0 - - - - - - -
22/07:30pm 17.1 SW 7 9 1012.6 - 0.0 - - - - - - -
22/07:00pm 17.4 SW 7 9 1012.6 - 0.0 - - - - - - -
22/06:30pm 17.5 SW 8 10 1012.8 - 0.0 - - - - - - -
22/06:00pm 17.4 SW 10 11 1013.0 - 0.0 - - - - - - -
22/05:30pm 17.7 SW 10 12 1013.3 - 0.0 - - - - - - -
22/05:00pm 18.1 SW 10 12 1013.5 - 0.0 - - - - - - -
22/04:30pm 17.9 SW 10 13 1013.9 - 0.0 - - - - - - -
22/04:00pm 17.9 SW 10 13 1014.2 - 0.0 - - - - - - -
22/03:30pm 18.1 SW 10 12 1014.3 - 0.0 - - - - - - -
22/03:00pm 18.3 SW 8 11 1014.6 - 0.0 - - - - - - -
22/02:30pm 18.5 WSW 6 9 1014.8 - 0.0 - - - - - - -
22/02:00pm 17.6 WSW 6 9 1015.1 - 0.0 - - - - - - -
22/01:30pm 18.4 W 6 8 1015.5 - 0.0 - - - - - - -
22/01:00pm 18.1 W 6 8 1015.6 - 0.0 - - - - - - -
22/12:30pm 17.5 W 6 8 1015.8 - 0.0 - - - - - - -
22/12:00pm 17.5 W 5 7 1015.9 - 0.0 - - - - - - -
22/11:30am 17.5 W 5 7 1015.9 - 0.0 - - - - - - -
22/11:00am 17.7 W 5 6 1015.9 - 0.0 - - - - - - -
22/10:30am 16.8 NW 6 8 1015.9 - 0.0 - Partly cloudy - - - - -
22/10:00am 16.9 NW 6 8 1016.0 - 0.0 - - - - - - -
22/09:30am 16.7 NW 5 8 1016.3 - 0.0 - - - - - - -
22/09:00am 16.2 NW 6 8 1016.6 - 0.0 - - - - - - -
22/08:30am 15.8 NNW 5 7 1016.2 - 0.0 - - - - - - -
22/08:00am 15.0 NW 6 8 1016.2 - 0.0 - Partly cloudy - - - - -
22/07:30am 14.4 WNW 4 6 1016.1 - 0.0 - - - - - - -
22/07:00am 13.4 WSW 3 3 1015.7 - 0.0 - - - - - - -
22/06:30am 12.9 WSW 3 4 1015.3 - 0.0 - - - - - - -
22/06:00am 12.8 CALM 0 2 1015.0 - 0.0 - - - - - - -
22/05:30am 12.8 CALM 0 0 1015.0 - 0.0 - - - - - - -
22/05:00am 13.1 WSW 3 4 1014.8 - 0.0 - - - - - - -
22/04:30am 13.1 CALM 0 0 1014.8 - 0.0 - - - - - - -
22/04:00am 13.1 CALM 0 0 1014.8 - 0.0 - - - - - - -
22/03:30am 13.2 CALM 0 0 1014.7 - 0.0 - Partly cloudy - - - - -
22/03:00am 13.2 CALM 0 0 1014.9 - 0.0 - Partly cloudy - - - - -
22/02:30am 13.3 WSW 3 6 1015.3 - 0.0 - Partly cloudy - - - - -
22/02:00am 13.5 SW 5 7 1015.5 - 0.0 - Partly cloudy - - - - -
22/01:30am 13.8 SW 5 6 1015.6 - 0.0 - Partly cloudy - - - - -
22/01:00am 14.1 SW 6 8 1015.7 - 0.0 - Partly cloudy - - - - -
22/12:30am 14.3 SW 7 9 1015.9 - 0.0 - Cloudy - - - - -
22/12:00am 14.2 SW 8 10 1015.9 - 0.0 - Partly cloudy - - - - -
 
Date/Time
EDT
Temp
°C
Wind Pressure Rain since
9am
mm
Weather Cloud Vis
km
Sea
Height
m
Swell
Dir  Spd
kts
Gust
kts
hPa Trend Height
m
Period
s
Dir
21/11:30pm 14.2 SW 9 11 1016.0 - 0.0 - Partly cloudy - - - - -
21/11:00pm 14.2 SW 8 10 1016.1 - 0.0 - Partly cloudy - - - - -
21/10:30pm 14.1 SW 8 11 1016.1 - 0.0 - Partly cloudy - - - - -
21/10:00pm 14.3 SW 10 13 1016.0 - 0.0 - - - - - - -
21/09:30pm 14.6 SW 13 16 1015.9 - 0.0 - Partly cloudy - - - - -
21/09:00pm 14.6 SW 14 17 1015.8 - 0.0 - Cloudy - - - - -
21/08:59pm 14.6 SW 14 17 1015.8 - 0.0 - Partly cloudy - - - - -
21/08:41pm 14.7 SW 14 17 1015.7 - 0.0 - Partly cloudy - - - - -
21/08:30pm 14.9 SW 12 16 1015.6 - 0.0 - Partly cloudy - - - - -
21/08:00pm 15.4 WSW 8 17 1015.2 - 0.0 - Partly cloudy - - - - -
21/07:30pm 15.9 SW 8 13 1014.8 - 0.0 - - - - - - -
21/07:00pm 16.2 SW 9 13 1014.5 - 0.0 - Partly cloudy - - - - -
21/06:30pm 16.1 SW 11 17 1014.4 - 0.0 - Partly cloudy - - - - -
21/06:00pm 16.4 SW 13 19 1014.5 - 0.0 - Partly cloudy - - - - -
21/05:30pm 16.2 SW 11 19 1014.5 - 0.0 - Partly cloudy - - - - -
21/05:00pm 16.0 WSW 11 18 1014.6 - 0.0 - Partly cloudy - - - - -
21/04:30pm 15.2 SW 16 26 1014.6 - 0.0 - Partly cloudy - - - - -
21/04:28pm 15.1 SW 17 26 1014.6 - 0.0 - Partly cloudy - - - - -
21/04:00pm 16.8 WSW 11 17 1014.6 - 0.0 - Partly cloudy - - - - -
21/03:44pm 16.6 WSW 12 19 1014.6 - 0.0 - Partly cloudy - - - - -
21/03:30pm 16.3 W 12 18 1014.5 - 0.0 - Partly cloudy - - - - -
21/03:00pm 16.5 W 13 20 1014.4 - 0.0 - Cloudy - - - - -
21/02:42pm 17.0 W 14 22 1014.4 - 0.0 - Partly cloudy - - - - -
21/02:30pm 16.8 W 13 20 1014.4 - 0.0 - Partly cloudy - - - - -
21/02:25pm 17.2 W 13 20 1014.5 - 0.0 - Partly cloudy - - - - -
21/02:14pm 16.9 W 13 19 1014.4 - 0.0 - Partly cloudy - - - - -
21/02:10pm 16.8 W 13 19 1014.4 - 0.0 - Partly cloudy - - - - -

Other Formats:

Comma delimited format used in spreadsheet applications
http://www.bom.gov.au/fwo/IDT60701/IDT60701.95954.axf

JavaScript Object Notation format (JSON) in row-major order
http://www.bom.gov.au/fwo/IDT60701/IDT60701.95954.json